aviador You're here:

KCOE Decoded Metar

COEUR D'ALENE in ID, USA
Report Time2017-08-18 00:56:00
UTC Time2017-08-18 01:07:49
Flight Rules vfr VFR
Wind240° at 07 kt
W.Decomp.*RWY 24: 6.6 kt HW 2.3 kt LCW
RWY 20: 6.5 kt HW 2.5 kt RCW
W.Rank240° ranks 10
Current wind is below 240° avg. (8.7)
Visibility9999 m
Phenomena:N/A
Clouds:N/A
Expected CloudBase > 8,400 ft AGL from Temp-Dew spread
CeilingNone
Temp28°C (ISA +18)
Dew Point07°C (26% RH)
Heat Index26.9°C
AAT24.7°C
QNH1017 hPa
Density Alt4,341 ft
Elevation2,320 ft
Report Wrong Elevation
Raw Report
KCOE 180056Z AUTO 24007KT 10SM CLR 28/07 A3004 RMK AO2 SLP177
T02780067=

Extra information for KCOE:More info

Metar Taf Metar & Taf Last 4 Metars F.Rules Stats Wind Profile Meteogram Temp Stats Airport Information Weather charts Add Link Nearby VenuesMetar ALERT Operation Metar Decoded Social comments

AIRNAV info for KCOE